createdAt,value
2019-01-05T00:02:31.892Z,6.00
2019-01-05T00:05:32.096Z,6.00
2019-01-05T00:08:44.767Z,6.00
2019-01-05T00:11:38.685Z,6.00
2019-01-05T00:14:24.898Z,6.00
2019-01-05T00:17:14.972Z,6.00
2019-01-05T00:20:16.815Z,6.00
2019-01-05T00:23:08.090Z,6.00
2019-01-05T00:25:54.335Z,5.90
2019-01-05T00:28:42.926Z,5.90
2019-01-05T00:31:35.525Z,5.90
2019-01-05T00:34:31.885Z,5.90
2019-01-05T00:37:19.946Z,5.90
2019-01-05T00:40:20.897Z,5.90
2019-01-05T00:43:07.510Z,5.90
2019-01-05T00:45:52.342Z,6.00
2019-01-05T00:48:43.388Z,6.00
2019-01-05T00:51:37.452Z,5.90
2019-01-05T00:54:25.329Z,6.00
2019-01-05T00:57:19.119Z,6.00
2019-01-05T01:00:05.545Z,6.00
2019-01-05T01:02:51.962Z,6.00
2019-01-05T01:05:45.903Z,6.00
2019-01-05T01:08:39.471Z,6.00
2019-01-05T01:11:36.812Z,6.00
2019-01-05T01:14:30.783Z,6.00
2019-01-05T01:17:17.408Z,6.00
2019-01-05T01:20:03.867Z,6.10
2019-01-05T01:22:45.558Z,6.00
2019-01-05T01:25:51.656Z,6.10
2019-01-05T01:28:37.941Z,6.10
2019-01-05T01:31:25.766Z,6.00
2019-01-05T01:34:09.930Z,6.10
2019-01-05T01:37:09.008Z,6.10
2019-01-05T01:39:57.967Z,6.10
2019-01-05T01:42:44.363Z,6.20
2019-01-05T01:45:45.996Z,6.20
2019-01-05T01:48:42.331Z,6.20
2019-01-05T01:51:38.979Z,6.20
2019-01-05T01:54:32.897Z,6.20
2019-01-05T01:57:22.662Z,6.20
2019-01-05T02:00:09.664Z,6.20
2019-01-05T02:02:51.922Z,6.20
2019-01-05T02:05:49.179Z,6.20
2019-01-05T02:08:39.908Z,6.20
2019-01-05T02:11:30.353Z,6.20
2019-01-05T02:18:25.207Z,6.20
2019-01-05T02:21:51.680Z,6.20
2019-01-05T02:25:31.123Z,6.20
2019-01-05T02:29:30.051Z,6.20
2019-01-05T02:33:03.590Z,6.30
2019-01-05T02:36:27.307Z,6.20
2019-01-05T02:39:51.410Z,6.20
2019-01-05T02:43:39.741Z,6.30
2019-01-05T02:47:10.393Z,6.30
2019-01-05T02:50:24.417Z,6.30
2019-01-05T02:53:55.342Z,6.30
2019-01-05T02:57:28.864Z,6.30
2019-01-05T03:00:46.000Z,6.30
2019-01-05T03:03:59.539Z,6.40
2019-01-05T03:07:12.614Z,6.40
2019-01-05T03:11:01.356Z,6.40
2019-01-05T03:14:48.219Z,6.40
2019-01-05T03:18:03.845Z,6.40
2019-01-05T03:21:22.831Z,6.40
2019-01-05T03:24:50.248Z,6.50
2019-01-05T03:28:10.709Z,6.50
2019-01-05T03:31:21.017Z,6.50
2019-01-05T03:35:04.631Z,6.40
2019-01-05T03:38:26.110Z,6.50
2019-01-05T03:41:51.170Z,6.60
2019-01-05T03:44:53.360Z,6.60
2019-01-05T03:48:28.644Z,6.60
2019-01-05T03:52:01.419Z,6.60
2019-01-05T03:55:35.354Z,6.70
2019-01-05T03:59:00.289Z,6.70
2019-01-05T04:02:15.541Z,6.70
2019-01-05T04:06:04.239Z,6.80
2019-01-05T04:09:21.317Z,6.80
2019-01-05T04:12:29.716Z,6.90
2019-01-05T04:16:19.919Z,6.90
2019-01-05T04:19:45.991Z,6.90
2019-01-05T04:23:15.461Z,6.90
2019-01-05T04:26:58.351Z,7.00
2019-01-05T04:30:18.959Z,7.00
2019-01-05T04:33:54.831Z,7.10
2019-01-05T04:37:41.022Z,7.10
2019-01-05T04:41:11.731Z,7.20
2019-01-05T04:44:55.576Z,7.20
2019-01-05T04:48:16.857Z,7.20
2019-01-05T04:51:45.964Z,7.30
2019-01-05T04:55:19.085Z,7.30
2019-01-05T04:58:39.810Z,7.30
2019-01-05T05:02:03.029Z,7.30
2019-01-05T05:05:52.194Z,7.30
2019-01-05T05:09:20.037Z,7.30
2019-01-05T05:13:25.207Z,7.30
2019-01-05T05:16:43.433Z,7.30
2019-01-05T05:20:01.558Z,7.30
2019-01-05T05:23:30.958Z,7.30
2019-01-05T05:26:58.002Z,7.30
2019-01-05T05:30:21.921Z,7.30
2019-01-05T05:37:39.432Z,7.30
2019-01-05T05:41:02.824Z,7.30
2019-01-05T05:44:41.654Z,7.30
2019-01-05T05:48:22.589Z,7.30
2019-01-05T05:51:53.582Z,7.30
2019-01-05T05:55:35.243Z,7.30
2019-01-05T05:59:11.371Z,7.30
2019-01-05T06:02:34.142Z,7.30
2019-01-05T06:05:56.676Z,7.30
2019-01-05T06:09:44.196Z,7.30
2019-01-05T06:13:27.045Z,7.20
2019-01-05T06:17:00.250Z,7.30
2019-01-05T06:20:23.023Z,7.30
2019-01-05T06:23:46.681Z,7.30
2019-01-05T06:27:04.940Z,7.30
2019-01-05T06:30:16.844Z,7.30
2019-01-05T06:33:29.562Z,7.30
2019-01-05T06:36:56.453Z,7.30
2019-01-05T06:40:19.955Z,7.40
2019-01-05T06:44:04.277Z,7.30
2019-01-05T06:47:28.964Z,7.30
2019-01-05T06:50:51.554Z,7.30
2019-01-05T06:54:13.233Z,7.30
2019-01-05T06:57:37.955Z,7.30
2019-01-05T07:01:01.714Z,7.30
2019-01-05T07:04:06.767Z,7.30
2019-01-05T07:07:36.272Z,7.30
2019-01-05T07:11:02.544Z,7.30
2019-01-05T07:14:49.280Z,7.30
2019-01-05T07:18:32.712Z,7.30
2019-01-05T07:21:53.610Z,7.40
2019-01-05T07:25:27.164Z,7.30
2019-01-05T07:29:18.241Z,7.30
2019-01-05T07:32:43.775Z,7.30
2019-01-05T07:36:09.870Z,7.30
2019-01-05T07:39:29.187Z,7.30
2019-01-05T07:42:56.791Z,7.40
2019-01-05T07:46:18.069Z,7.40
2019-01-05T07:49:57.619Z,7.40
2019-01-05T07:53:14.239Z,7.40
2019-01-05T07:57:20.584Z,7.40
2019-01-05T08:01:12.374Z,7.50
2019-01-05T08:04:41.894Z,7.50
2019-01-05T08:08:14.440Z,7.40
2019-01-05T08:11:48.460Z,7.40
2019-01-05T08:15:20.528Z,7.50
2019-01-05T08:18:43.284Z,7.50
2019-01-05T08:22:08.705Z,7.50
2019-01-05T08:25:30.731Z,7.50
2019-01-05T08:28:47.945Z,7.60
2019-01-05T08:32:08.413Z,7.60
2019-01-05T08:35:34.456Z,7.60
2019-01-05T08:39:05.822Z,7.60
2019-01-05T08:42:35.331Z,7.70
2019-01-05T08:46:14.983Z,7.60
2019-01-05T08:50:08.094Z,7.70
2019-01-05T08:53:30.341Z,7.70
2019-01-05T08:56:43.159Z,7.70
2019-01-05T09:00:19.071Z,7.70
2019-01-05T09:03:43.474Z,7.70
2019-01-05T09:07:13.886Z,7.70
2019-01-05T09:10:57.871Z,7.70
2019-01-05T09:14:07.045Z,7.60
2019-01-05T09:17:44.158Z,7.70
2019-01-05T09:21:08.603Z,7.60
2019-01-05T09:24:44.840Z,7.60
2019-01-05T09:28:07.347Z,7.70
2019-01-05T09:31:32.865Z,7.60
2019-01-05T09:35:22.766Z,7.60
2019-01-05T09:38:40.986Z,7.60
2019-01-05T09:42:09.032Z,7.70
2019-01-05T09:45:42.278Z,7.60
2019-01-05T09:49:09.949Z,7.70
2019-01-05T09:52:45.521Z,7.70
2019-01-05T09:56:03.190Z,7.70
2019-01-05T09:59:36.222Z,7.60
2019-01-05T10:03:04.543Z,7.60
2019-01-05T10:06:50.707Z,7.60
2019-01-05T10:10:14.217Z,7.70
2019-01-05T10:13:40.135Z,7.70
2019-01-05T10:16:58.829Z,7.70
2019-01-05T10:20:33.859Z,7.80
2019-01-05T10:23:51.219Z,7.80
2019-01-05T10:27:14.132Z,7.80
2019-01-05T10:31:01.099Z,7.80
2019-01-05T10:34:44.824Z,7.70
2019-01-05T10:38:05.504Z,7.80
2019-01-05T10:41:31.569Z,7.80
2019-01-05T10:45:22.277Z,7.80
2019-01-05T10:48:59.130Z,7.70
2019-01-05T10:52:42.094Z,7.80
2019-01-05T10:56:29.247Z,7.80
2019-01-05T11:00:02.647Z,7.80
2019-01-05T11:03:27.332Z,7.80
2019-01-05T11:06:36.441Z,7.80
2019-01-05T11:10:01.741Z,7.70
2019-01-05T11:13:28.066Z,7.80
2019-01-05T11:17:01.648Z,7.80
2019-01-05T11:20:35.715Z,7.80
2019-01-05T11:24:03.522Z,7.80
2019-01-05T11:27:22.591Z,7.80
2019-01-05T11:30:52.086Z,7.90
2019-01-05T11:34:25.282Z,7.90
2019-01-05T11:38:00.760Z,7.90
2019-01-05T11:41:33.040Z,7.90
2019-01-05T11:45:05.420Z,8.00
2019-01-05T11:48:49.527Z,8.00
2019-01-05T11:52:22.599Z,8.00
2019-01-05T11:55:55.218Z,8.00
2019-01-05T11:59:05.453Z,8.00
2019-01-05T12:02:19.709Z,8.00
2019-01-05T12:05:28.020Z,8.00
2019-01-05T12:09:10.612Z,8.00
2019-01-05T12:12:40.617Z,8.00
2019-01-05T12:16:16.232Z,8.10
2019-01-05T12:19:39.880Z,8.00
2019-01-05T12:23:07.940Z,8.00
2019-01-05T12:26:49.223Z,8.00
2019-01-05T12:30:21.792Z,8.00
2019-01-05T12:33:56.169Z,8.00
2019-01-05T12:37:31.143Z,8.00
2019-01-05T12:40:59.343Z,8.00
2019-01-05T12:44:43.464Z,7.90
2019-01-05T12:48:40.670Z,8.00
2019-01-05T12:52:24.995Z,7.90
2019-01-05T12:56:18.573Z,8.00
2019-01-05T12:59:46.204Z,8.00
2019-01-05T13:03:39.030Z,8.00
2019-01-05T13:07:10.861Z,8.00
2019-01-05T13:10:37.392Z,8.00
2019-01-05T13:13:58.187Z,8.00
2019-01-05T13:17:26.542Z,8.00
2019-01-05T13:20:54.856Z,8.00
2019-01-05T13:24:28.174Z,8.00
2019-01-05T13:27:50.406Z,8.00
2019-01-05T13:31:28.369Z,7.90
2019-01-05T13:34:41.571Z,7.90
2019-01-05T13:38:06.813Z,7.90
2019-01-05T13:41:53.898Z,7.90
2019-01-05T13:45:24.267Z,7.90
2019-01-05T13:48:49.035Z,7.90
2019-01-05T13:52:20.322Z,8.00
2019-01-05T13:55:09.756Z,7.90
2019-01-05T13:57:56.873Z,8.00
2019-01-05T14:00:54.142Z,7.90
2019-01-05T14:03:47.880Z,8.00
2019-01-05T14:06:34.411Z,8.00
2019-01-05T14:09:23.345Z,8.00
2019-01-05T14:12:07.413Z,8.10
2019-01-05T14:14:58.080Z,8.10
2019-01-05T14:17:47.929Z,8.10
2019-01-05T14:20:35.767Z,8.00
2019-01-05T14:23:35.771Z,8.00
2019-01-05T14:26:38.543Z,8.00
2019-01-05T14:29:28.495Z,8.00
2019-01-05T14:32:14.733Z,8.00
2019-01-05T14:35:08.739Z,8.00
2019-01-05T14:37:51.416Z,8.00
2019-01-05T14:40:51.382Z,8.00
2019-01-05T14:43:39.963Z,7.90
2019-01-05T14:46:33.912Z,7.90
2019-01-05T14:49:20.329Z,8.00
2019-01-05T14:52:08.604Z,8.00
2019-01-05T14:55:05.314Z,8.00
2019-01-05T14:57:51.944Z,8.00
2019-01-05T15:00:48.998Z,8.00
2019-01-05T15:03:35.655Z,8.00
2019-01-05T15:06:22.975Z,8.00
2019-01-05T15:09:19.906Z,8.00
2019-01-05T15:12:32.038Z,8.00
2019-01-05T15:15:18.525Z,8.00
2019-01-05T15:18:12.174Z,7.90
2019-01-05T15:21:18.370Z,8.00
2019-01-05T15:24:12.074Z,8.00
2019-01-05T15:27:08.017Z,7.90
2019-01-05T15:29:54.347Z,7.90
2019-01-05T15:32:48.415Z,7.80
2019-01-05T15:35:34.831Z,7.80
2019-01-05T15:38:22.655Z,7.80
2019-01-05T15:41:08.538Z,7.80
2019-01-05T15:44:11.402Z,7.70
2019-01-05T15:47:01.457Z,7.70
2019-01-05T15:49:48.244Z,7.70
2019-01-05T15:52:34.853Z,7.60
2019-01-05T15:55:21.512Z,7.70
2019-01-05T15:58:09.195Z,7.60
2019-01-05T16:00:57.126Z,7.60
2019-01-05T16:03:53.773Z,7.60
2019-01-05T16:06:39.969Z,7.60
2019-01-05T16:09:26.974Z,7.60
2019-01-05T16:12:13.914Z,7.60
2019-01-05T16:14:59.430Z,7.60
2019-01-05T16:17:47.365Z,7.60
2019-01-05T16:20:34.109Z,7.60
2019-01-05T16:23:22.107Z,7.60
2019-01-05T16:26:10.163Z,7.60
2019-01-05T16:29:02.980Z,7.60
2019-01-05T16:32:10.113Z,7.60
2019-01-05T16:35:16.259Z,7.60
2019-01-05T16:38:13.084Z,7.60
2019-01-05T16:41:18.759Z,7.50
2019-01-05T16:44:06.619Z,7.60
2019-01-05T16:47:03.078Z,7.60
2019-01-05T16:50:05.959Z,7.60
2019-01-05T16:52:52.215Z,7.60
2019-01-05T16:55:55.141Z,7.70
2019-01-05T16:58:54.946Z,7.60
2019-01-05T17:01:41.251Z,7.60
2019-01-05T17:04:37.915Z,7.60
2019-01-05T17:07:25.793Z,7.60
2019-01-05T17:10:12.240Z,7.60
2019-01-05T17:13:07.670Z,7.60
2019-01-05T17:15:57.050Z,7.60
2019-01-05T17:18:42.298Z,7.50
2019-01-05T17:21:29.809Z,7.50
2019-01-05T17:24:29.333Z,7.50
2019-01-05T17:27:29.352Z,7.50
2019-01-05T17:30:15.734Z,7.60
2019-01-05T17:33:03.581Z,7.60
2019-01-05T17:35:48.537Z,7.60
2019-01-05T17:38:39.236Z,7.60
2019-01-05T17:41:32.877Z,7.70
2019-01-05T17:44:23.550Z,7.70
2019-01-05T17:47:11.339Z,7.60
2019-01-05T17:50:08.558Z,7.70
2019-01-05T17:53:11.678Z,7.60
2019-01-05T17:55:57.621Z,7.70
2019-01-05T17:58:45.465Z,7.70
2019-01-05T18:01:31.705Z,7.70
2019-01-05T18:04:28.532Z,7.70
2019-01-05T18:07:34.284Z,7.70
2019-01-05T18:10:20.517Z,7.70
2019-01-05T18:13:02.083Z,7.70
2019-01-05T18:15:48.640Z,7.60
2019-01-05T18:18:38.118Z,7.60
2019-01-05T18:21:21.106Z,7.60
2019-01-05T18:24:03.749Z,7.60
2019-01-05T18:26:51.648Z,7.60
2019-01-05T18:29:36.076Z,7.60
2019-01-05T18:32:22.626Z,7.60
2019-01-05T18:35:06.049Z,7.60
2019-01-05T18:38:03.600Z,7.60
2019-01-05T18:40:49.856Z,7.50
2019-01-05T18:43:42.180Z,7.50
2019-01-05T18:46:34.837Z,7.50
2019-01-05T18:49:23.030Z,7.50
2019-01-05T18:52:10.952Z,7.50
2019-01-05T18:54:57.681Z,7.50
2019-01-05T18:57:44.297Z,7.50
2019-01-05T19:00:33.907Z,7.50
2019-01-05T19:03:39.727Z,7.50
2019-01-05T19:06:33.498Z,7.50
2019-01-05T19:09:19.765Z,7.50
2019-01-05T19:12:08.710Z,7.40
2019-01-05T19:15:01.721Z,7.50
2019-01-05T19:17:48.053Z,7.50
2019-01-05T19:20:34.501Z,7.50
2019-01-05T19:23:21.101Z,7.50
2019-01-05T19:26:07.662Z,7.50
2019-01-05T19:29:04.603Z,7.50
2019-01-05T19:31:50.872Z,7.50
2019-01-05T19:34:48.229Z,7.50
2019-01-05T19:37:38.870Z,7.50
2019-01-05T19:40:27.513Z,7.50
2019-01-05T19:43:14.017Z,7.50
2019-01-05T19:45:59.222Z,7.50
2019-01-05T19:48:49.883Z,7.50
2019-01-05T19:51:43.534Z,7.50
2019-01-05T19:54:29.774Z,7.50
2019-01-05T19:57:13.135Z,7.50
2019-01-05T19:59:59.663Z,7.50
2019-01-05T20:02:50.318Z,7.60
2019-01-05T20:05:56.432Z,7.50
2019-01-05T20:08:42.936Z,7.50
2019-01-05T20:11:29.440Z,7.60
2019-01-05T20:14:16.231Z,7.50
2019-01-05T20:16:59.154Z,7.50
2019-01-05T20:19:43.210Z,7.50
2019-01-05T20:22:39.930Z,7.40
2019-01-05T20:25:26.446Z,7.50
2019-01-05T20:28:23.530Z,7.50
2019-01-05T20:31:16.624Z,7.50
2019-01-05T20:34:03.919Z,7.50
2019-01-05T20:36:50.365Z,7.50
2019-01-05T20:39:47.350Z,7.50
2019-01-05T20:42:33.992Z,7.50
2019-01-05T20:45:36.980Z,7.50
2019-01-05T20:48:43.068Z,7.50
2019-01-05T20:51:29.566Z,7.50
2019-01-05T20:54:15.949Z,7.50
2019-01-05T20:57:06.976Z,7.50
2019-01-05T21:00:03.797Z,7.50
2019-01-05T21:02:50.040Z,7.50
2019-01-05T21:05:31.346Z,7.50
2019-01-05T21:08:17.871Z,7.50
2019-01-05T21:11:14.666Z,7.60
2019-01-05T21:14:05.747Z,7.60
2019-01-05T21:16:59.496Z,7.50
2019-01-05T21:19:56.088Z,7.50
2019-01-05T21:22:43.930Z,7.50
2019-01-05T21:25:30.406Z,7.50
2019-01-05T21:28:16.848Z,7.50
2019-01-05T21:31:15.671Z,7.50
2019-01-05T21:34:03.510Z,7.50
2019-01-05T21:36:49.998Z,7.50
2019-01-05T21:39:37.832Z,7.50
2019-01-05T21:42:24.481Z,7.50
2019-01-05T21:45:07.118Z,7.50
2019-01-05T21:48:13.298Z,7.50
2019-01-05T21:51:13.295Z,7.50
2019-01-05T21:53:53.276Z,7.50
2019-01-05T21:56:41.187Z,7.50
2019-01-05T21:59:27.378Z,7.50
2019-01-05T22:02:11.067Z,7.50
2019-01-05T22:05:08.181Z,7.50
2019-01-05T22:07:46.530Z,7.40
2019-01-05T22:10:31.861Z,7.40
2019-01-05T22:13:19.582Z,7.40
2019-01-05T22:16:07.426Z,7.40
2019-01-05T22:18:59.732Z,7.40
2019-01-05T22:21:50.377Z,7.40
2019-01-05T22:24:38.149Z,7.40
2019-01-05T22:27:29.619Z,7.30
2019-01-05T22:30:11.202Z,7.30
2019-01-05T22:32:58.979Z,7.30
2019-01-05T22:35:45.918Z,7.30
2019-01-05T22:38:32.148Z,7.30
2019-01-05T22:41:25.851Z,7.30
2019-01-05T22:44:12.079Z,7.30
2019-01-05T22:46:58.644Z,7.30
2019-01-05T22:49:45.075Z,7.30
2019-01-05T22:52:38.874Z,7.30
2019-01-05T22:55:25.428Z,7.30
2019-01-05T22:58:19.320Z,7.30
2019-01-05T23:01:05.553Z,7.30
2019-01-05T23:03:56.512Z,7.20
2019-01-05T23:06:56.318Z,7.20
2019-01-05T23:09:44.123Z,7.20
2019-01-05T23:12:30.586Z,7.20
2019-01-05T23:15:17.013Z,7.10
2019-01-05T23:18:03.560Z,7.20
2019-01-05T23:20:48.933Z,7.10
2019-01-05T23:23:39.797Z,7.20
2019-01-05T23:26:37.046Z,7.20
2019-01-05T23:29:28.096Z,7.20
2019-01-05T23:32:13.550Z,7.10
2019-01-05T23:35:07.504Z,7.10
2019-01-05T23:37:54.091Z,7.10
2019-01-05T23:40:40.414Z,7.10
2019-01-05T23:43:38.054Z,7.10
2019-01-05T23:46:24.808Z,7.10
2019-01-05T23:49:15.555Z,7.00
2019-01-05T23:52:01.878Z,7.10
2019-01-05T23:54:44.895Z,7.10
2019-01-05T23:57:31.618Z,7.00
